Time,TemperatureF,DewpointF,PressureIn,WindDirection,WindDirectionDegrees,WindSpeedMPH,WindSpeedGustMPH,Humidity,HourlyPrecipIn,Conditions,Clouds,dailyrainin,SoftwareType,DateUTC
2013-02-01 00:00:00,48.3,29.0,30.13,WSW,246,0.0,0.0,47,0.00,,,0.00,Wunderground v.1.15,2013-02-01 08:00:00,
2013-02-01 00:05:00,48.2,28.9,30.13,WSW,246,0.0,0.0,47,0.00,,,0.00,Wunderground v.1.15,2013-02-01 08:05:00,
2013-02-01 00:15:00,47.3,28.6,30.13,WSW,246,0.0,0.0,48,0.00,,,0.00,Wunderground v.1.15,2013-02-01 08:15:00,
2013-02-01 00:25:00,46.8,29.1,30.13,WSW,246,0.0,0.0,50,0.00,,,0.00,Wunderground v.1.15,2013-02-01 08:25:00,
2013-02-01 00:30:00,46.8,29.1,30.13,WSW,246,0.0,0.0,50,0.00,,,0.00,Wunderground v.1.15,2013-02-01 08:30:00,
2013-02-01 00:35:00,46.7,29.0,30.13,WSW,246,0.0,0.0,50,0.00,,,0.00,Wunderground v.1.15,2013-02-01 08:35:00,
2013-02-01 00:45:00,46.4,28.8,30.13,WSW,246,0.0,0.0,50,0.00,,,0.00,Wunderground v.1.15,2013-02-01 08:45:00,
2013-02-01 00:50:00,46.1,28.5,30.13,WSW,246,0.0,0.0,50,0.00,,,0.00,Wunderground v.1.15,2013-02-01 08:50:00,
2013-02-01 01:00:00,45.7,28.6,30.13,WSW,246,0.0,0.0,51,0.00,,,0.00,Wunderground v.1.15,2013-02-01 09:00:00,
2013-02-01 01:05:00,45.5,28.9,30.13,WSW,246,0.0,0.0,52,0.00,,,0.00,Wunderground v.1.15,2013-02-01 09:05:00,
2013-02-01 01:15:00,44.9,28.8,30.13,WSW,246,0.0,0.0,53,0.00,,,0.00,Wunderground v.1.15,2013-02-01 09:15:00,
2013-02-01 01:20:00,44.8,28.7,30.14,WSW,246,0.0,0.0,53,0.00,,,0.00,Wunderground v.1.15,2013-02-01 09:20:00,
2013-02-01 01:25:00,44.5,28.9,30.14,WSW,246,0.0,0.0,54,0.00,,,0.00,Wunderground v.1.15,2013-02-01 09:25:00,
2013-02-01 01:35:00,44.2,28.6,30.14,WSW,246,0.0,0.0,54,0.00,,,0.00,Wunderground v.1.15,2013-02-01 09:35:00,
2013-02-01 01:45:00,44.5,28.9,30.14,WSW,246,0.0,0.0,54,0.00,,,0.00,Wunderground v.1.15,2013-02-01 09:45:00,
2013-02-01 01:50:00,44.6,28.5,30.14,WSW,246,0.0,0.0,53,0.00,,,0.00,Wunderground v.1.15,2013-02-01 09:50:00,
2013-02-01 02:00:00,45.1,29.0,30.14,South,181,0.0,0.0,53,0.00,,,0.00,Wunderground v.1.15,2013-02-01 10:00:00,
2013-02-01 02:05:00,45.1,29.0,30.14,South,181,0.0,0.0,53,0.00,,,0.00,Wunderground v.1.15,2013-02-01 10:05:00,
2013-02-01 02:15:00,44.8,28.7,30.14,South,181,0.0,0.0,53,0.00,,,0.00,Wunderground v.1.15,2013-02-01 10:15:00,
2013-02-01 02:20:00,44.6,29.0,30.15,South,181,0.0,0.0,54,0.00,,,0.00,Wunderground v.1.15,2013-02-01 10:20:00,
2013-02-01 02:30:00,44.2,28.6,30.15,South,181,0.0,0.0,54,0.00,,,0.00,Wunderground v.1.15,2013-02-01 10:30:00,
2013-02-01 02:40:00,43.8,28.7,30.15,South,181,0.0,0.0,55,0.00,,,0.00,Wunderground v.1.15,2013-02-01 10:40:00,
2013-02-01 02:50:00,43.8,28.7,30.14,South,181,0.0,0.0,55,0.00,,,0.00,Wunderground v.1.15,2013-02-01 10:50:00,
2013-02-01 02:55:00,43.8,28.7,30.14,South,181,0.0,0.0,55,0.00,,,0.00,Wunderground v.1.15,2013-02-01 10:55:00,
2013-02-01 03:00:00,43.8,29.1,30.14,South,181,0.0,0.0,56,0.00,,,0.00,Wunderground v.1.15,2013-02-01 11:00:00,
2013-02-01 03:05:00,43.3,28.6,30.14,South,181,0.0,0.0,56,0.00,,,0.00,Wunderground v.1.15,2013-02-01 11:05:00,
2013-02-01 03:15:00,42.9,28.7,30.14,South,181,0.0,0.0,57,0.00,,,0.00,Wunderground v.1.15,2013-02-01 11:15:00,
2013-02-01 03:25:00,42.6,28.4,30.14,South,181,0.0,0.0,57,0.00,,,0.00,Wunderground v.1.15,2013-02-01 11:25:00,
2013-02-01 03:30:00,42.3,28.6,30.14,South,181,0.0,0.0,58,0.00,,,0.00,Wunderground v.1.15,2013-02-01 11:30:00,
2013-02-01 03:35:00,42.3,28.6,30.14,South,181,0.0,0.0,58,0.00,,,0.00,Wunderground v.1.15,2013-02-01 11:35:00,
2013-02-01 03:45:00,42.3,28.6,30.14,South,181,0.0,0.0,58,0.00,,,0.00,Wunderground v.1.15,2013-02-01 11:45:00,
2013-02-01 03:50:00,42.3,28.6,30.14,South,181,0.0,0.0,58,0.00,,,0.00,Wunderground v.1.15,2013-02-01 11:50:00,
2013-02-01 04:00:00,42.2,28.5,30.14,South,181,0.0,0.0,58,0.00,,,0.00,Wunderground v.1.15,2013-02-01 12:00:00,
2013-02-01 04:05:00,42.2,28.5,30.14,South,181,0.0,0.0,58,0.00,,,0.00,Wunderground v.1.15,2013-02-01 12:05:00,
2013-02-01 04:15:00,42.2,28.5,30.14,South,181,0.0,0.0,58,0.00,,,0.00,Wunderground v.1.15,2013-02-01 12:15:00,
2013-02-01 04:20:00,42.1,28.4,30.14,South,181,0.0,0.0,58,0.00,,,0.00,Wunderground v.1.15,2013-02-01 12:20:00,
2013-02-01 04:25:00,42.1,28.4,30.14,South,181,0.0,0.0,58,0.00,,,0.00,Wunderground v.1.15,2013-02-01 12:25:00,
2013-02-01 04:35:00,41.9,28.6,30.14,South,181,0.0,0.0,59,0.00,,,0.00,Wunderground v.1.15,2013-02-01 12:35:00,
2013-02-01 04:40:00,42.2,28.5,30.14,South,181,0.0,0.0,58,0.00,,,0.00,Wunderground v.1.15,2013-02-01 12:40:00,
2013-02-01 04:50:00,42.1,28.4,30.14,South,181,0.0,0.0,58,0.00,,,0.00,Wunderground v.1.15,2013-02-01 12:50:00,
2013-02-01 05:00:00,41.8,28.5,30.14,South,181,0.0,0.0,59,0.00,,,0.00,Wunderground v.1.15,2013-02-01 13:00:00,
2013-02-01 05:05:00,41.8,28.5,30.15,South,181,0.0,0.0,59,0.00,,,0.00,Wunderground v.1.15,2013-02-01 13:05:00,
2013-02-01 05:15:00,42.5,28.8,30.15,South,181,0.0,0.0,58,0.00,,,0.00,Wunderground v.1.15,2013-02-01 13:15:00,
2013-02-01 05:20:00,42.6,28.4,30.15,South,181,0.0,0.0,57,0.00,,,0.00,Wunderground v.1.15,2013-02-01 13:20:00,
2013-02-01 05:25:00,42.5,28.3,30.15,South,181,0.0,0.0,57,0.00,,,0.00,Wunderground v.1.15,2013-02-01 13:25:00,
2013-02-01 05:35:00,42.3,28.6,30.15,South,181,0.0,0.0,58,0.00,,,0.00,Wunderground v.1.15,2013-02-01 13:35:00,
2013-02-01 05:45:00,41.3,28.4,30.15,South,181,0.0,0.0,60,0.00,,,0.00,Wunderground v.1.15,2013-02-01 13:45:00,
2013-02-01 05:50:00,41.1,28.3,30.15,South,181,0.0,0.0,60,0.00,,,0.00,Wunderground v.1.15,2013-02-01 13:50:00,
2013-02-01 06:00:00,41.1,28.3,30.15,South,181,0.0,0.0,60,0.00,,,0.00,Wunderground v.1.15,2013-02-01 14:00:00,
2013-02-01 06:05:00,41.2,28.4,30.15,South,181,0.0,0.0,60,0.00,,,0.00,Wunderground v.1.15,2013-02-01 14:05:00,
2013-02-01 06:15:00,41.1,28.7,30.15,South,181,0.0,0.0,61,0.00,,,0.00,Wunderground v.1.15,2013-02-01 14:15:00,
2013-02-01 06:20:00,40.9,28.5,30.15,South,181,0.0,0.0,61,0.00,,,0.00,Wunderground v.1.15,2013-02-01 14:20:00,
2013-02-01 06:25:00,40.6,28.2,30.15,South,181,0.0,0.0,61,0.00,,,0.00,Wunderground v.1.15,2013-02-01 14:25:00,
2013-02-01 06:35:00,40.2,28.2,30.15,South,181,0.0,0.0,62,0.00,,,0.00,Wunderground v.1.15,2013-02-01 14:35:00,
2013-02-01 06:45:00,40.5,28.5,30.15,South,181,0.0,0.0,62,0.00,,,0.00,Wunderground v.1.15,2013-02-01 14:45:00,
2013-02-01 06:50:00,40.8,28.4,30.15,South,181,0.0,0.0,61,0.00,,,0.00,Wunderground v.1.15,2013-02-01 14:50:00,
2013-02-01 06:55:00,40.5,28.1,30.15,South,181,0.0,0.0,61,0.00,,,0.00,Wunderground v.1.15,2013-02-01 14:55:00,
2013-02-01 07:05:00,39.9,27.9,30.16,South,181,0.0,0.0,62,0.00,,,0.00,Wunderground v.1.15,2013-02-01 15:05:00,
2013-02-01 07:15:00,40.2,28.6,30.16,South,181,0.0,0.0,63,0.00,,,0.00,Wunderground v.1.15,2013-02-01 15:15:00,
2013-02-01 07:25:00,41.3,28.9,30.17,South,182,0.0,0.0,61,0.00,,,0.00,Wunderground v.1.15,2013-02-01 15:25:00,
2013-02-01 07:30:00,41.6,29.1,30.17,South,182,0.0,0.0,61,0.00,,,0.00,Wunderground v.1.15,2013-02-01 15:30:00,
2013-02-01 07:40:00,42.5,29.2,30.17,South,182,0.0,0.0,59,0.00,,,0.00,Wunderground v.1.15,2013-02-01 15:40:00,
2013-02-01 07:45:00,43.2,29.4,30.17,South,182,0.0,0.0,58,0.00,,,0.00,Wunderground v.1.15,2013-02-01 15:45:00,
2013-02-01 07:55:00,44.2,29.5,30.17,South,182,0.0,0.0,56,0.00,,,0.00,Wunderground v.1.15,2013-02-01 15:55:00,
2013-02-01 08:00:00,44.6,29.9,30.17,South,182,0.0,0.0,56,0.00,,,0.00,Wunderground v.1.15,2013-02-01 16:00:00,
2013-02-01 08:05:00,45.2,29.5,30.18,South,182,0.0,0.0,54,0.00,,,0.00,Wunderground v.1.15,2013-02-01 16:05:00,
2013-02-01 08:15:00,46.5,29.8,30.18,South,183,0.0,0.0,52,0.00,,,0.00,Wunderground v.1.15,2013-02-01 16:15:00,
2013-02-01 08:20:00,46.8,30.1,30.18,South,183,0.0,0.0,52,0.00,,,0.00,Wunderground v.1.15,2013-02-01 16:20:00,
2013-02-01 08:30:00,47.0,31.2,30.18,South,183,0.0,0.0,54,0.00,,,0.00,Wunderground v.1.15,2013-02-01 16:30:00,
2013-02-01 08:40:00,47.0,30.3,30.18,South,183,0.0,0.0,52,0.00,,,0.00,Wunderground v.1.15,2013-02-01 16:40:00,
2013-02-01 08:45:00,47.1,28.9,30.18,South,183,0.0,0.0,49,0.00,,,0.00,Wunderground v.1.15,2013-02-01 16:45:00,
2013-02-01 08:50:00,47.6,28.9,30.19,South,183,0.0,0.0,48,0.00,,,0.00,Wunderground v.1.15,2013-02-01 16:50:00,
2013-02-01 09:00:00,49.2,27.6,30.19,South,183,0.0,0.0,43,0.00,,,0.00,Wunderground v.1.15,2013-02-01 17:00:00,
2013-02-01 14:50:00,66.3,29.4,30.10,NE,54,0.0,2.0,25,0.00,,,0.00,Wunderground v.1.15,2013-02-01 22:50:00,
2013-02-01 15:00:00,67.6,29.5,30.10,ESE,103,0.0,1.0,24,0.00,,,0.00,Wunderground v.1.15,2013-02-01 23:00:00,
2013-02-01 15:05:00,67.3,28.2,30.10,ESE,103,0.0,1.0,23,0.00,,,0.00,Wunderground v.1.15,2013-02-01 23:05:00,
2013-02-01 15:15:00,67.3,28.2,30.10,ESE,103,0.0,0.0,23,0.00,,,0.00,Wunderground v.1.15,2013-02-01 23:15:00,
2013-02-01 15:25:00,66.8,27.8,30.10,ESE,103,0.0,0.0,23,0.00,,,0.00,Wunderground v.1.15,2013-02-01 23:25:00,
2013-02-01 15:30:00,66.3,27.4,30.10,ESE,104,0.0,0.0,23,0.00,,,0.00,Wunderground v.1.15,2013-02-01 23:30:00,
2013-02-01 15:40:00,66.1,28.2,30.10,ESE,104,0.0,0.0,24,0.00,,,0.00,Wunderground v.1.15,2013-02-01 23:40:00,
2013-02-01 15:45:00,66.1,28.2,30.10,ESE,104,0.0,0.0,24,0.00,,,0.00,Wunderground v.1.15,2013-02-01 23:45:00,
2013-02-01 15:55:00,66.3,28.4,30.10,ESE,104,0.0,0.0,24,0.00,,,0.00,Wunderground v.1.15,2013-02-01 23:55:00,
2013-02-01 16:00:00,66.4,28.5,30.10,SE,128,0.0,0.0,24,0.00,,,0.00,Wunderground v.1.15,2013-02-02 00:00:00,
2013-02-01 16:05:00,66.3,28.4,30.10,SE,134,0.0,0.0,24,0.00,,,0.00,Wunderground v.1.15,2013-02-02 00:05:00,
2013-02-01 16:15:00,66.0,29.1,30.10,SE,134,0.0,0.0,25,0.00,,,0.00,Wunderground v.1.15,2013-02-02 00:15:00,
2013-02-01 16:20:00,65.8,28.0,30.10,SE,134,0.0,0.0,24,0.00,,,0.00,Wunderground v.1.15,2013-02-02 00:20:00,
2013-02-01 16:30:00,65.2,28.5,30.10,SE,134,0.0,0.0,25,0.00,,,0.00,Wunderground v.1.15,2013-02-02 00:30:00,
2013-02-01 16:35:00,64.7,28.0,30.10,SE,134,0.0,0.0,25,0.00,,,0.00,Wunderground v.1.15,2013-02-02 00:35:00,
2013-02-01 16:45:00,64.0,28.4,30.10,SE,134,0.0,0.0,26,0.00,,,0.00,Wunderground v.1.15,2013-02-02 00:45:00,
2013-02-01 16:55:00,63.4,28.8,30.10,SE,134,0.0,0.0,27,0.00,,,0.00,Wunderground v.1.15,2013-02-02 00:55:00,
2013-02-01 17:05:00,62.6,29.0,30.11,SE,134,0.0,0.0,28,0.00,,,0.00,Wunderground v.1.15,2013-02-02 01:05:00,
2013-02-01 17:10:00,62.1,27.7,30.11,SE,134,0.0,0.0,27,0.00,,,0.00,Wunderground v.1.15,2013-02-02 01:10:00,
2013-02-01 17:20:00,61.3,27.9,30.11,SE,133,0.0,0.0,28,0.00,,,0.00,Wunderground v.1.15,2013-02-02 01:20:00,
2013-02-01 17:25:00,61.0,28.5,30.11,SE,133,0.0,0.0,29,0.00,,,0.00,Wunderground v.1.15,2013-02-02 01:25:00,
2013-02-01 17:30:00,60.5,28.1,30.11,SE,133,0.0,0.0,29,0.00,,,0.00,Wunderground v.1.15,2013-02-02 01:30:00,
2013-02-01 17:35:00,60.2,28.6,30.12,SE,133,0.0,0.0,30,0.00,,,0.00,Wunderground v.1.15,2013-02-02 01:35:00,
2013-02-01 17:45:00,59.3,28.6,30.12,SE,133,0.0,0.0,31,0.00,,,0.00,Wunderground v.1.15,2013-02-02 01:45:00,
2013-02-01 17:55:00,58.7,28.9,30.12,SE,133,0.0,0.0,32,0.00,,,0.00,Wunderground v.1.15,2013-02-02 01:55:00,
2013-02-01 18:05:00,58.0,29.0,30.13,SE,133,0.0,0.0,33,0.00,,,0.00,Wunderground v.1.15,2013-02-02 02:05:00,
2013-02-01 18:15:00,57.2,29.1,30.13,SE,133,0.0,0.0,34,0.00,,,0.00,Wunderground v.1.15,2013-02-02 02:15:00,
2013-02-01 18:25:00,56.5,29.1,30.13,SE,133,0.0,0.0,35,0.00,,,0.00,Wunderground v.1.15,2013-02-02 02:25:00,
2013-02-01 18:35:00,56.2,28.9,30.15,SE,133,0.0,0.0,35,0.00,,,0.00,Wunderground v.1.15,2013-02-02 02:35:00,
2013-02-01 18:40:00,56.2,28.9,30.15,SE,134,0.0,0.0,35,0.00,,,0.00,Wunderground v.1.15,2013-02-02 02:40:00,
2013-02-01 18:50:00,56.5,29.1,30.15,SE,134,0.0,0.0,35,0.00,,,0.00,Wunderground v.1.15,2013-02-02 02:50:00,
2013-02-01 19:00:00,56.5,29.1,30.15,SE,134,0.0,0.0,35,0.00,,,0.00,Wunderground v.1.15,2013-02-02 03:00:00,
2013-02-01 19:05:00,56.5,29.1,30.15,SE,134,0.0,0.0,35,0.00,,,0.00,Wunderground v.1.15,2013-02-02 03:05:00,
2013-02-01 19:15:00,56.9,29.5,30.15,South,178,0.0,0.0,35,0.00,,,0.00,Wunderground v.1.15,2013-02-02 03:15:00,
2013-02-01 19:25:00,56.7,29.3,30.16,South,178,0.0,0.0,35,0.00,,,0.00,Wunderground v.1.15,2013-02-02 03:25:00,
2013-02-01 19:30:00,56.6,29.2,30.16,South,178,0.0,0.0,35,0.00,,,0.00,Wunderground v.1.15,2013-02-02 03:30:00,
2013-02-01 19:40:00,56.3,29.0,30.16,South,178,0.0,0.0,35,0.00,,,0.00,Wunderground v.1.15,2013-02-02 03:40:00,
2013-02-01 19:45:00,56.2,28.9,30.16,South,178,0.0,0.0,35,0.00,,,0.00,Wunderground v.1.15,2013-02-02 03:45:00,
2013-02-01 19:50:00,56.0,28.7,30.17,South,178,0.0,0.0,35,0.00,,,0.00,Wunderground v.1.15,2013-02-02 03:50:00,
2013-02-01 20:00:00,55.6,29.0,30.17,South,178,0.0,0.0,36,0.00,,,0.00,Wunderground v.1.15,2013-02-02 04:00:00,
2013-02-01 20:05:00,55.3,29.4,30.17,South,178,0.0,0.0,37,0.00,,,0.00,Wunderground v.1.15,2013-02-02 04:05:00,
2013-02-01 20:10:00,55.1,29.3,30.17,South,178,0.0,0.0,37,0.00,,,0.00,Wunderground v.1.15,2013-02-02 04:10:00,
2013-02-01 20:20:00,54.8,29.0,30.17,South,178,0.0,0.0,37,0.00,,,0.00,Wunderground v.1.15,2013-02-02 04:20:00,
2013-02-01 20:25:00,54.8,29.0,30.17,South,178,0.0,0.0,37,0.00,,,0.00,Wunderground v.1.15,2013-02-02 04:25:00,
2013-02-01 20:35:00,54.4,29.3,30.18,South,178,0.0,0.0,38,0.00,,,0.00,Wunderground v.1.15,2013-02-02 04:35:00,
2013-02-01 20:45:00,53.9,29.5,30.18,South,178,0.0,0.0,39,0.00,,,0.00,Wunderground v.1.15,2013-02-02 04:45:00,
2013-02-01 20:55:00,53.3,29.6,30.18,South,178,0.0,0.0,40,0.00,,,0.00,Wunderground v.1.15,2013-02-02 04:55:00,
2013-02-01 21:00:00,53.5,29.7,30.18,South,178,0.0,0.0,40,0.00,,,0.00,Wunderground v.1.15,2013-02-02 05:00:00,
2013-02-01 21:05:00,53.3,30.2,30.18,South,178,0.0,0.0,41,0.00,,,0.00,Wunderground v.1.15,2013-02-02 05:05:00,
2013-02-01 21:10:00,52.9,29.8,30.18,South,178,0.0,0.0,41,0.00,,,0.00,Wunderground v.1.15,2013-02-02 05:10:00,
2013-02-01 21:15:00,52.6,29.5,30.18,South,178,0.0,0.0,41,0.00,,,0.00,Wunderground v.1.15,2013-02-02 05:15:00,
2013-02-01 21:25:00,52.0,30.2,30.18,South,178,0.0,0.0,43,0.00,,,0.00,Wunderground v.1.15,2013-02-02 05:25:00,
2013-02-01 21:30:00,51.7,29.9,30.18,South,178,0.0,0.0,43,0.00,,,0.00,Wunderground v.1.15,2013-02-02 05:30:00,
2013-02-01 21:35:00,51.6,30.4,30.18,South,178,0.0,0.0,44,0.00,,,0.00,Wunderground v.1.15,2013-02-02 05:35:00,
2013-02-01 21:40:00,51.6,29.8,30.18,South,178,0.0,0.0,43,0.00,,,0.00,Wunderground v.1.15,2013-02-02 05:40:00,
2013-02-01 21:45:00,51.4,30.2,30.18,South,178,0.0,0.0,44,0.00,,,0.00,Wunderground v.1.15,2013-02-02 05:45:00,
2013-02-01 21:55:00,51.3,30.1,30.18,South,178,0.0,0.0,44,0.00,,,0.00,Wunderground v.1.15,2013-02-02 05:55:00,
2013-02-01 22:00:00,51.1,29.9,30.18,South,178,0.0,0.0,44,0.00,,,0.00,Wunderground v.1.15,2013-02-02 06:00:00,
2013-02-01 22:05:00,51.0,29.8,30.18,South,178,0.0,0.0,44,0.00,,,0.00,Wunderground v.1.15,2013-02-02 06:05:00,
2013-02-01 22:15:00,50.7,29.6,30.18,South,178,0.0,0.0,44,0.00,,,0.00,Wunderground v.1.15,2013-02-02 06:15:00,
2013-02-01 22:20:00,50.7,29.6,30.18,South,178,0.0,0.0,44,0.00,,,0.00,Wunderground v.1.15,2013-02-02 06:20:00,
2013-02-01 22:25:00,50.7,29.6,30.18,South,178,0.0,0.0,44,0.00,,,0.00,Wunderground v.1.15,2013-02-02 06:25:00,
2013-02-01 22:35:00,50.5,29.9,30.18,South,178,0.0,0.0,45,0.00,,,0.00,Wunderground v.1.15,2013-02-02 06:35:00,
2013-02-01 22:45:00,50.5,29.9,30.18,South,178,0.0,0.0,45,0.00,,,0.00,Wunderground v.1.15,2013-02-02 06:45:00,
2013-02-01 22:55:00,50.8,29.6,30.19,South,178,0.0,0.0,44,0.00,,,0.00,Wunderground v.1.15,2013-02-02 06:55:00,
2013-02-01 23:00:00,51.0,29.3,30.19,South,178,0.0,0.0,43,0.00,,,0.00,Wunderground v.1.15,2013-02-02 07:00:00,
2013-02-01 23:05:00,51.3,29.5,30.18,South,178,0.0,0.0,43,0.00,,,0.00,Wunderground v.1.15,2013-02-02 07:05:00,
2013-02-01 23:15:00,51.4,29.6,30.18,South,178,0.0,0.0,43,0.00,,,0.00,Wunderground v.1.15,2013-02-02 07:15:00,
2013-02-01 23:25:00,51.3,29.5,30.18,South,178,0.0,0.0,43,0.00,,,0.00,Wunderground v.1.15,2013-02-02 07:25:00,
2013-02-01 23:30:00,51.6,29.2,30.18,South,178,0.0,0.0,42,0.00,,,0.00,Wunderground v.1.15,2013-02-02 07:30:00,
2013-02-01 23:40:00,51.6,29.2,30.18,South,178,0.0,0.0,42,0.00,,,0.00,Wunderground v.1.15,2013-02-02 07:40:00,
2013-02-01 23:45:00,51.6,29.2,30.18,South,178,0.0,0.0,42,0.00,,,0.00,Wunderground v.1.15,2013-02-02 07:45:00,
2013-02-01 23:55:00,51.7,29.3,30.18,South,178,0.0,0.0,42,0.00,,,0.00,Wunderground v.1.15,2013-02-02 07:55:00,